Terminal Aerodrome Forecast
Issued by NWS Sioux Falls, SD

Home | Current Version | Previous Version | Graphics & Text | Print | Product List | Glossary Off
Versions: 1 2 3 4 5 6 7 8 9 10 11 12 13 14 15 16 17 18 19 20 21 22

322
FTUS43 KFSD 211840 CCA
TAFFSD
TAF COR
KFSD 211840Z 2119/2218 05009KT 6SM -TSRA OVC025CB
      TEMPO 2119/2121 2SM -TSRA BKN009 OVC025CB
     FM212200 34011KT P6SM OVC040
     FM220100 35006KT P6SM BKN045
     FM220500 33007KT P6SM SCT150=

USA.gov is the U.S. government's official web portal to all federal, state and local government web resources and services.